Time;durP1;ratioP1;P1;durP2;ratioP2;P2;SDS_P1;SDS_P2;PMS_P1;PMS_P2;Temp;Humidity;BMP_temperature;BMP_pressure;BME280_temperature;BME280_humidity;BME280_pressure;Samples;Min_cycle;Max_cycle;Signal;HPM_P1;HPM_P2
2022/11/17 00:01:50;;;;;;;8.80;2.80;;;12.40;78.90;;;;;;5033913;28;20132;-64
2022/11/17 00:04:16;;;;;;;7.28;2.38;;;12.40;79.10;;;;;;5032386;28;20044;-64
2022/11/17 00:06:41;;;;;;;8.68;3.00;;;12.40;79.30;;;;;;5034356;28;20358;-64
2022/11/17 00:09:16;;;;;;;7.10;2.30;;;12.40;79.40;;;;;;5034337;28;20025;-65
2022/11/17 00:14:33;;;;;;;7.03;3.03;;;12.40;79.50;;;;;;5033560;28;20052;-65
2022/11/17 00:17:04;;;;;;;6.30;2.45;;;12.40;79.70;;;;;;5021640;28;20045;-65
2022/11/17 00:22:14;;;;;;;6.95;2.53;;;12.40;79.90;;;;;;5024022;28;20108;-65
2022/11/17 00:24:39;;;;;;;8.70;3.10;;;12.40;80.00;;;;;;5033495;28;20541;-64
2022/11/17 00:27:05;;;;;;;7.50;2.70;;;12.40;80.00;;;;;;5034352;28;20116;-65
2022/11/17 00:29:31;;;;;;;6.70;2.58;;;12.40;80.20;;;;;;5034682;28;20040;-65
2022/11/17 00:34:42;;;;;;;5.25;2.00;;;12.40;80.30;;;;;;5029423;28;20104;-64
2022/11/17 00:37:09;;;;;;;7.82;2.53;;;12.30;80.40;;;;;;5033495;28;20064;-64
2022/11/17 00:39:35;;;;;;;7.30;2.28;;;12.30;80.40;;;;;;5033941;28;20506;-64
2022/11/17 00:42:01;;;;;;;8.38;2.40;;;12.30;80.60;;;;;;5033512;28;20061;-65
2022/11/17 00:44:26;;;;;;;6.38;2.10;;;12.30;80.70;;;;;;5033141;28;20079;-64
2022/11/17 00:46:52;;;;;;;6.28;2.08;;;12.40;80.70;;;;;;5037017;28;20055;-64
2022/11/17 00:49:25;;;;;;;5.65;2.03;;;12.30;80.70;;;;;;5036399;28;20025;-64
2022/11/17 00:51:51;;;;;;;6.38;2.38;;;12.30;80.80;;;;;;5037483;28;20030;-64
2022/11/17 00:54:17;;;;;;;10.68;2.30;;;12.40;80.90;;;;;;5036366;28;20056;-64
2022/11/17 00:56:42;;;;;;;5.03;1.90;;;12.30;81.00;;;;;;5037126;28;20454;-65
2022/11/17 00:59:08;;;;;;;6.10;2.22;;;12.30;81.10;;;;;;5036680;28;20108;-65
2022/11/17 01:01:35;;;;;;;6.10;2.13;;;12.30;81.20;;;;;;5035960;28;20022;-65
2022/11/17 01:04:02;;;;;;;6.50;2.00;;;12.30;81.30;;;;;;5034217;28;20029;-65
2022/11/17 01:06:33;;;;;;;5.45;1.75;;;12.30;81.50;;;;;;5036088;28;20032;-65
2022/11/17 01:09:00;;;;;;;;;;;12.30;81.60;;;;;;5036465;28;20336;-65
2022/11/17 01:11:26;;;;;;;3.92;1.67;;;12.30;81.40;;;;;;5051658;28;19982;-65
2022/11/17 01:13:54;;;;;;;4.57;1.60;;;12.30;81.50;;;;;;5036864;28;20421;-64
2022/11/17 01:16:20;;;;;;;4.35;1.75;;;12.30;81.60;;;;;;5035860;28;20057;-64
2022/11/17 01:18:47;;;;;;;5.43;1.90;;;12.30;81.70;;;;;;5033977;28;20041;-65
2022/11/17 01:21:17;;;;;;;5.57;1.88;;;12.30;81.90;;;;;;5032663;28;20152;-65
2022/11/17 01:23:44;;;;;;;4.45;1.63;;;12.30;82.00;;;;;;5028742;28;20035;-65
2022/11/17 01:26:14;;;;;;;4.50;1.50;;;12.30;82.10;;;;;;5053627;28;20029;-66
2022/11/17 01:28:41;;;;;;;4.60;1.77;;;12.30;82.20;;;;;;5050517;28;20022;-65
2022/11/17 01:31:12;;;;;;;6.25;1.83;;;12.30;82.20;;;;;;5052101;28;20446;-65
2022/11/17 01:33:38;;;;;;;;;;;12.30;82.30;;;;;;5050557;28;20041;-65
2022/11/17 01:36:09;;;;;;;5.22;1.42;;;12.30;82.10;;;;;;5051108;28;19916;-65
2022/11/17 01:38:34;;;;;;;5.23;1.80;;;12.30;82.20;;;;;;5043135;28;20079;-65
2022/11/17 01:41:05;;;;;;;4.05;1.75;;;12.30;82.30;;;;;;5048532;28;20124;-65
2022/11/17 01:43:35;;;;;;;4.82;1.55;;;12.30;82.40;;;;;;5042380;28;20421;-65
2022/11/17 01:46:01;;;;;;;6.30;1.40;;;12.30;82.50;;;;;;5035075;28;20342;-65
2022/11/17 01:48:26;;;;;;;4.10;1.52;;;12.30;82.50;;;;;;5032775;28;20021;-65
2022/11/17 01:50:52;;;;;;;3.15;1.20;;;12.30;82.50;;;;;;5036213;28;20036;-64
2022/11/17 01:53:21;;;;;;;5.22;1.70;;;12.30;82.60;;;;;;5036082;28;20037;-64
2022/11/17 01:55:46;;;;;;;6.40;2.03;;;12.30;82.60;;;;;;5035880;28;20399;-65
2022/11/17 01:58:18;;;;;;;5.13;1.60;;;12.30;82.60;;;;;;5034606;28;20175;-65
2022/11/17 02:00:44;;;;;;;4.45;1.45;;;12.30;82.70;;;;;;5050964;28;20362;-65
2022/11/17 02:03:10;;;;;;;7.43;1.70;;;12.30;82.80;;;;;;5035415;28;20044;-65
2022/11/17 02:05:46;;;;;;;3.75;1.77;;;12.30;82.80;;;;;;5035373;28;20018;-64
2022/11/17 02:08:13;;;;;;;7.03;1.77;;;12.30;83.00;;;;;;5035926;28;20036;-65
2022/11/17 02:10:39;;;;;;;5.82;1.98;;;12.30;83.00;;;;;;5018119;28;20028;-65
2022/11/17 02:13:07;;;;;;;5.90;2.03;;;12.30;83.10;;;;;;5034670;28;20481;-65
2022/11/17 02:15:32;;;;;;;4.78;2.08;;;12.30;83.10;;;;;;5034729;28;20044;-65
2022/11/17 02:17:59;;;;;;;6.45;1.75;;;12.30;83.20;;;;;;5035448;28;20120;-64
2022/11/17 02:20:43;;;;;;;5.70;1.98;;;12.30;83.30;;;;;;5035630;28;20087;-64
2022/11/17 02:23:37;;;;;;;5.40;2.03;;;12.30;83.30;;;;;;5034477;28;20095;-64
2022/11/17 02:26:20;;;;;;;6.25;1.80;;;12.30;83.30;;;;;;5034510;28;20489;-64
2022/11/17 02:29:01;;;;;;;3.75;1.75;;;12.30;83.20;;;;;;5036206;28;20049;-64
2022/11/17 02:31:37;;;;;;;5.03;1.67;;;12.30;83.20;;;;;;5035544;28;20112;-64
2022/11/17 02:34:23;;;;;;;5.53;1.75;;;12.30;83.20;;;;;;5035201;28;20033;-64
2022/11/17 02:37:06;;;;;;;8.15;1.83;;;12.30;83.30;;;;;;5034805;28;20458;-64
2022/11/17 02:39:51;;;;;;;4.25;1.65;;;12.30;83.30;;;;;;5034987;28;20034;-65
2022/11/17 02:45:49;;;;;;;5.95;1.77;;;12.30;83.40;;;;;;5034300;28;20033;-64
2022/11/17 02:48:24;;;;;;;6.40;1.88;;;12.30;83.30;;;;;;5026009;28;20084;-64
2022/11/17 02:50:51;;;;;;;6.05;1.70;;;12.30;83.30;;;;;;5035164;28;20029;-64
2022/11/17 02:53:18;;;;;;;5.50;1.67;;;12.40;83.30;;;;;;5035159;28;20103;-64
2022/11/17 02:55:52;;;;;;;5.30;1.88;;;12.40;83.30;;;;;;5035043;28;20033;-64
2022/11/17 02:58:18;;;;;;;6.40;1.77;;;12.40;83.30;;;;;;5033510;28;20060;-64
2022/11/17 03:01:01;;;;;;;4.18;1.63;;;12.40;83.30;;;;;;5034760;28;20060;-64
2022/11/17 03:04:01;;;;;;;6.28;1.30;;;12.40;83.40;;;;;;5033227;28;20030;-64
2022/11/17 03:06:45;;;;;;;3.78;1.10;;;12.40;83.40;;;;;;5032913;28;20096;-64
2022/11/17 03:09:38;;;;;;;4.68;1.50;;;12.40;83.40;;;;;;5034310;28;20025;-64
2022/11/17 03:12:13;;;;;;;3.90;1.40;;;12.40;83.40;;;;;;5034907;28;20053;-64
2022/11/17 03:15:08;;;;;;;5.00;1.40;;;12.40;83.40;;;;;;5034041;28;20049;-64
2022/11/17 03:18:00;;;;;;;4.22;1.60;;;12.40;83.40;;;;;;5023418;28;20050;-65
2022/11/17 03:20:32;;;;;;;7.05;1.60;;;12.40;83.40;;;;;;5033132;28;20052;-64
2022/11/17 03:23:05;;;;;;;3.38;1.35;;;12.40;83.30;;;;;;5034837;28;20026;-65
2022/11/17 03:25:33;;;;;;;4.90;1.50;;;12.40;83.30;;;;;;5032780;28;20453;-65
2022/11/17 03:28:04;;;;;;;4.00;1.48;;;12.50;83.30;;;;;;5035277;28;20083;-65
2022/11/17 03:30:32;;;;;;;5.68;1.77;;;12.50;83.20;;;;;;5034401;28;20056;-65
2022/11/17 03:33:04;;;;;;;5.00;1.80;;;12.50;83.10;;;;;;5033622;28;20025;-64
2022/11/17 03:35:34;;;;;;;5.95;1.48;;;12.40;83.10;;;;;;5033527;28;20044;-65
2022/11/17 03:38:06;;;;;;;4.22;1.40;;;12.50;83.00;;;;;;5034813;28;20422;-65
2022/11/17 03:40:33;;;;;;;4.82;1.70;;;12.50;83.00;;;;;;5034141;28;20450;-64
2022/11/17 03:43:03;;;;;;;4.70;1.80;;;12.50;83.00;;;;;;5034095;28;20044;-64
2022/11/17 03:45:42;;;;;;;2.50;1.25;;;12.50;82.90;;;;;;5034056;28;20026;-64
2022/11/17 03:48:13;;;;;;;4.45;1.60;;;12.50;82.90;;;;;;5033551;28;20481;-64
2022/11/17 03:51:09;;;;;;;4.97;1.50;;;12.50;82.90;;;;;;5033917;28;20446;-64
2022/11/17 03:53:35;;;;;;;2.65;1.27;;;12.60;82.80;;;;;;5020640;28;20033;-65
2022/11/17 03:56:32;;;;;;;4.45;1.40;;;12.50;82.70;;;;;;5033981;28;20021;-64
2022/11/17 03:59:08;;;;;;;4.38;1.48;;;12.60;82.70;;;;;;5027699;28;20037;-64
2022/11/17 04:01:35;;;;;;;6.00;1.60;;;12.50;82.70;;;;;;5033763;28;20032;-64
2022/11/17 04:04:01;;;;;;;4.03;1.42;;;12.50;82.70;;;;;;5033540;28;20037;-64
2022/11/17 04:06:27;;;;;;;4.00;1.63;;;12.50;82.70;;;;;;5033390;28;20315;-64
2022/11/17 04:08:52;;;;;;;3.78;1.42;;;12.50;82.70;;;;;;5034892;28;20032;-64
2022/11/17 04:16:47;;;;;;;5.55;1.73;;;12.50;82.70;;;;;;5036505;28;20511;-64
2022/11/17 04:19:12;;;;;;;6.28;1.80;;;12.50;82.70;;;;;;5033580;28;20119;-65
2022/11/17 04:21:38;;;;;;;4.68;1.30;;;12.50;82.80;;;;;;5033655;28;20034;-65
2022/11/17 04:24:04;;;;;;;3.97;1.30;;;12.50;82.90;;;;;;5032614;28;20041;-64
2022/11/17 04:29:14;;;;;;;5.07;1.83;;;12.50;83.00;;;;;;5030209;28;20029;-64
2022/11/17 04:31:39;;;;;;;5.05;1.90;;;12.50;83.00;;;;;;5033294;28;20171;-65
2022/11/17 04:34:05;;;;;;;3.92;1.58;;;12.50;83.00;;;;;;5034549;28;20033;-65
2022/11/17 04:36:35;;;;;;;5.57;1.50;;;12.50;83.00;;;;;;5034831;28;20026;-65
2022/11/17 04:39:01;;;;;;;5.97;2.00;;;12.50;83.10;;;;;;5032316;28;20470;-65
2022/11/17 04:44:15;;;;;;;8.70;1.85;;;12.50;83.00;;;;;;5036126;28;20034;-64
2022/11/17 04:46:43;;;;;;;6.05;2.13;;;12.50;83.10;;;;;;5028620;28;20030;-65
2022/11/17 04:49:09;;;;;;;3.65;1.40;;;12.50;83.10;;;;;;5029326;28;20053;-64
2022/11/17 04:51:35;;;;;;;6.57;2.03;;;12.50;83.10;;;;;;5032744;28;20508;-64
2022/11/17 04:54:02;;;;;;;5.93;1.50;;;12.50;83.20;;;;;;5032286;28;20355;-64
2022/11/17 04:56:28;;;;;;;6.80;1.73;;;12.50;83.20;;;;;;5032215;28;20116;-64
2022/11/17 04:58:54;;;;;;;6.03;1.83;;;12.50;83.20;;;;;;5027602;28;20026;-64
2022/11/17 05:01:22;;;;;;;3.63;1.40;;;12.50;83.20;;;;;;5031334;28;20022;-64
2022/11/17 05:03:49;;;;;;;3.88;1.70;;;12.50;83.10;;;;;;5031270;28;20057;-64
2022/11/17 05:06:21;;;;;;;4.78;1.58;;;12.50;83.10;;;;;;5032506;28;20026;-64
2022/11/17 05:08:48;;;;;;;5.18;1.85;;;12.50;83.20;;;;;;5039229;28;20116;-64
2022/11/17 05:13:59;;;;;;;4.18;1.80;;;12.50;83.20;;;;;;5030631;28;20331;-64
2022/11/17 05:19:13;;;;;;;4.35;1.50;;;12.50;83.30;;;;;;5034647;28;20037;-64
2022/11/17 05:21:38;;;;;;;4.85;1.70;;;12.40;83.30;;;;;;5034317;28;20362;-64
2022/11/17 05:24:04;;;;;;;2.95;1.45;;;12.40;83.30;;;;;;5032871;28;20034;-64
2022/11/17 05:26:32;;;;;;;3.80;1.63;;;12.40;83.30;;;;;;5032777;28;20040;-64
2022/11/17 05:29:00;;;;;;;5.55;1.75;;;12.40;83.40;;;;;;5033503;28;20038;-64
2022/11/17 05:31:26;;;;;;;5.05;1.70;;;12.40;83.40;;;;;;5033735;28;20362;-64
2022/11/17 05:33:52;;;;;;;3.95;1.52;;;12.40;83.40;;;;;;5034602;28;20336;-64
2022/11/17 05:36:18;;;;;;;6.43;1.60;;;12.40;83.50;;;;;;5036007;28;20040;-64
2022/11/17 05:38:48;;;;;;;5.18;2.08;;;12.40;83.60;;;;;;5036395;28;20029;-64
2022/11/17 05:41:15;;;;;;;4.65;1.63;;;12.50;83.60;;;;;;5037569;28;20516;-64
2022/11/17 05:43:42;;;;;;;2.97;1.30;;;12.50;83.60;;;;;;5034869;28;20454;-65
2022/11/17 05:46:08;;;;;;;3.85;1.60;;;12.40;83.60;;;;;;5036143;28;20029;-65
2022/11/17 05:48:33;;;;;;;7.13;1.85;;;12.40;83.70;;;;;;5036997;28;20028;-65
2022/11/17 05:50:59;;;;;;;6.38;1.83;;;12.40;83.80;;;;;;5037278;28;20104;-64
2022/11/17 05:53:27;;;;;;;3.03;1.40;;;12.40;83.80;;;;;;5026587;28;20112;-65
2022/11/17 05:56:16;;;;;;;4.95;1.85;;;12.40;83.90;;;;;;5036389;28;20037;-64
2022/11/17 05:58:45;;;;;;;3.28;1.17;;;12.40;83.90;;;;;;5035547;28;20507;-64
2022/11/17 06:01:14;;;;;;;4.50;1.60;;;12.30;83.90;;;;;;5036344;28;20108;-64
2022/11/17 06:03:45;;;;;;;4.40;1.60;;;12.30;84.10;;;;;;5024709;28;20030;-64
2022/11/17 06:06:11;;;;;;;4.68;1.48;;;12.40;84.10;;;;;;5035140;28;20021;-64
2022/11/17 06:08:36;;;;;;;5.82;1.77;;;12.30;84.10;;;;;;5035950;28;20442;-64
2022/11/17 06:11:02;;;;;;;6.25;1.60;;;12.30;84.10;;;;;;5036288;28;20101;-64
2022/11/17 06:13:28;;;;;;;6.95;1.92;;;12.30;84.20;;;;;;5035130;28;20032;-64
2022/11/17 06:15:59;;;;;;;6.53;1.75;;;12.30;84.20;;;;;;5036040;28;20031;-64
2022/11/17 06:18:36;;;;;;;4.53;1.35;;;12.30;84.30;;;;;;5035208;28;20053;-64
2022/11/17 06:21:02;;;;;;;6.53;2.10;;;12.30;84.30;;;;;;5036128;28;20032;-64
2022/11/17 06:23:31;;;;;;;6.25;1.70;;;12.30;84.40;;;;;;5034138;28;20047;-64
2022/11/17 06:25:58;;;;;;;5.78;1.95;;;12.30;84.50;;;;;;5035343;28;20036;-64
2022/11/17 06:28:27;;;;;;;5.28;1.80;;;12.30;84.60;;;;;;5034446;28;20026;-64
2022/11/17 06:30:53;;;;;;;4.75;1.58;;;12.30;84.60;;;;;;5033751;28;20021;-64
2022/11/17 06:33:19;;;;;;;4.57;1.50;;;12.30;84.70;;;;;;5035702;28;20022;-64
2022/11/17 06:35:47;;;;;;;5.32;1.77;;;12.30;84.80;;;;;;5035134;28;20358;-64
2022/11/17 06:38:12;;;;;;;4.18;1.45;;;12.30;84.80;;;;;;5034135;28;20375;-64
2022/11/17 06:40:38;;;;;;;6.13;1.40;;;12.30;84.90;;;;;;5034408;28;20058;-64
2022/11/17 06:43:07;;;;;;;4.07;1.63;;;12.30;84.90;;;;;;5029597;28;20025;-64
2022/11/17 06:45:41;;;;;;;2.95;1.25;;;12.30;84.90;;;;;;5034952;28;20087;-64
2022/11/17 06:48:08;;;;;;;5.07;1.58;;;12.30;85.00;;;;;;5035118;28;20037;-65
2022/11/17 06:50:33;;;;;;;4.50;1.77;;;12.30;85.00;;;;;;5034995;28;20109;-64
2022/11/17 06:53:02;;;;;;;3.88;1.50;;;12.30;85.00;;;;;;5034150;28;20116;-64
2022/11/17 06:55:27;;;;;;;5.88;1.30;;;12.30;85.00;;;;;;5034809;28;20029;-64
2022/11/17 06:58:11;;;;;;;4.15;1.30;;;12.40;85.00;;;;;;5035869;28;20346;-64
2022/11/17 07:00:37;;;;;;;5.15;1.95;;;12.40;85.00;;;;;;5030856;28;20512;-65
2022/11/17 07:03:05;;;;;;;5.22;1.45;;;12.40;85.00;;;;;;5034625;28;20129;-64
2022/11/17 07:05:33;;;;;;;4.07;1.33;;;12.40;85.00;;;;;;5033280;28;20033;-64
2022/11/17 07:08:00;;;;;;;6.18;1.40;;;12.40;85.10;;;;;;5035408;28;20374;-64
2022/11/17 07:10:27;;;;;;;5.50;1.50;;;12.40;85.10;;;;;;5033960;28;20108;-64
2022/11/17 07:12:53;;;;;;;5.38;2.08;;;12.40;85.10;;;;;;5034702;28;20049;-64
2022/11/17 07:15:19;;;;;;;5.53;1.17;;;12.40;85.80;;;;;;5034936;28;20421;-64
2022/11/17 07:17:45;;;;;;;4.55;1.30;;;12.40;85.20;;;;;;5050095;28;20462;-64
2022/11/17 07:20:11;;;;;;;4.13;1.30;;;12.40;85.20;;;;;;5033867;28;20388;-66
2022/11/17 07:22:37;;;;;;;5.10;1.48;;;12.40;85.20;;;;;;5034315;28;20038;-65
2022/11/17 07:25:03;;;;;;;4.53;1.08;;;12.40;85.20;;;;;;5035802;28;20030;-65
2022/11/17 07:27:29;;;;;;;5.05;1.25;;;12.40;85.10;;;;;;5035400;28;20405;-65
2022/11/17 07:29:56;;;;;;;6.93;1.65;;;12.40;85.10;;;;;;5033389;28;20079;-65
2022/11/17 07:32:22;;;;;;;3.65;1.50;;;12.40;85.00;;;;;;5035071;28;20028;-65
2022/11/17 07:34:48;;;;;;;3.85;0.98;;;12.40;85.00;;;;;;5033027;28;20033;-65
2022/11/17 07:37:14;;;;;;;7.95;1.40;;;12.50;85.00;;;;;;5035254;28;20386;-65
2022/11/17 07:39:40;;;;;;;3.95;1.13;;;12.50;85.00;;;;;;5033606;28;20084;-65
2022/11/17 07:42:05;;;;;;;6.90;1.40;;;12.50;84.90;;;;;;5034496;28;20033;-65
2022/11/17 07:44:31;;;;;;;3.67;1.10;;;12.50;85.00;;;;;;5046312;28;20029;-65
2022/11/17 07:46:57;;;;;;;5.95;1.58;;;12.50;84.90;;;;;;5032355;28;20517;-65
2022/11/17 07:49:23;;;;;;;4.50;1.25;;;12.50;85.00;;;;;;5035041;28;20030;-65
2022/11/17 07:51:48;;;;;;;5.93;1.10;;;12.50;85.00;;;;;;5032896;28;20021;-65
2022/11/17 07:54:14;;;;;;;4.63;1.25;;;12.40;85.00;;;;;;5032749;28;20451;-65
2022/11/17 07:56:40;;;;;;;4.68;1.23;;;12.40;85.00;;;;;;5034091;28;20112;-65
2022/11/17 07:59:05;;;;;;;2.92;1.15;;;12.40;85.00;;;;;;5035651;28;20112;-65
2022/11/17 08:01:31;;;;;;;4.47;1.20;;;12.40;85.00;;;;;;5034073;28;20027;-65
2022/11/17 08:03:57;;;;;;;3.85;1.60;;;12.50;85.00;;;;;;5031876;28;20086;-65
2022/11/17 08:06:23;;;;;;;5.07;1.42;;;12.50;85.00;;;;;;5033686;28;20446;-65
2022/11/17 08:08:50;;;;;;;6.47;1.45;;;12.50;85.00;;;;;;5033971;28;20029;-64
2022/11/17 08:11:16;;;;;;;5.60;1.65;;;12.50;85.00;;;;;;5041402;28;20025;-64
2022/11/17 08:13:42;;;;;;;5.10;1.70;;;12.50;85.00;;;;;;5043895;28;20340;-65
2022/11/17 08:16:09;;;;;;;4.07;1.20;;;12.50;85.00;;;;;;5032176;28;20068;-65
2022/11/17 08:18:35;;;;;;;4.43;1.15;;;12.50;84.90;;;;;;5032408;28;20122;-64
2022/11/17 08:21:08;;;;;;;6.72;1.17;;;12.50;84.80;;;;;;5034575;28;20041;-64
2022/11/17 08:23:34;;;;;;;5.47;1.33;;;12.50;84.80;;;;;;5031762;28;20036;-65
2022/11/17 08:26:02;;;;;;;4.70;0.80;;;12.50;84.70;;;;;;5033371;28;20037;-65
2022/11/17 08:28:27;;;;;;;7.03;1.23;;;12.50;84.70;;;;;;5025485;28;20033;-65
2022/11/17 08:30:53;;;;;;;3.53;1.08;;;12.50;84.50;;;;;;5031726;28;20025;-65
2022/11/17 08:33:19;;;;;;;5.32;0.95;;;12.50;84.50;;;;;;5031473;28;20030;-66
2022/11/17 08:35:44;;;;;;;4.82;0.80;;;12.50;84.40;;;;;;5033574;28;20044;-66
2022/11/17 08:38:11;;;;;;;3.95;1.00;;;12.50;84.30;;;;;;5035252;28;20036;-66
2022/11/17 08:40:37;;;;;;;3.35;0.90;;;12.50;84.30;;;;;;5030439;28;20034;-66
2022/11/17 08:43:03;;;;;;;3.25;1.15;;;12.50;84.20;;;;;;5033760;28;20347;-65
2022/11/17 08:45:30;;;;;;;5.95;1.13;;;12.50;84.30;;;;;;5047108;28;20021;-65
2022/11/17 08:47:56;;;;;;;4.35;1.10;;;12.50;84.30;;;;;;5033066;28;20060;-65
2022/11/17 08:50:22;;;;;;;5.75;0.98;;;12.50;84.30;;;;;;5031398;28;20122;-66
2022/11/17 08:52:48;;;;;;;3.17;0.80;;;12.40;84.10;;;;;;5027748;28;20526;-65
2022/11/17 08:55:14;;;;;;;4.47;1.00;;;12.40;84.10;;;;;;5021955;28;20120;-65
2022/11/17 08:57:39;;;;;;;4.40;1.15;;;12.40;84.20;;;;;;5030847;28;20026;-65
2022/11/17 09:00:06;;;;;;;4.47;0.95;;;12.40;84.10;;;;;;5032646;28;20465;-65
2022/11/17 09:02:32;;;;;;;4.97;1.05;;;12.40;84.10;;;;;;5027164;28;20025;-65
2022/11/17 09:04:58;;;;;;;4.57;1.30;;;12.40;84.10;;;;;;5032679;28;20417;-65
2022/11/17 09:07:24;;;;;;;8.25;1.60;;;12.40;84.10;;;;;;5034125;28;20083;-65
2022/11/17 09:09:49;;;;;;;7.20;1.38;;;12.40;84.10;;;;;;5037495;28;20033;-65
2022/11/17 09:12:15;;;;;;;5.13;1.67;;;12.40;84.10;;;;;;5036670;28;20033;-65
2022/11/17 09:14:41;;;;;;;5.72;1.40;;;12.30;84.10;;;;;;5053082;28;20077;-65
2022/11/17 09:17:07;;;;;;;3.40;1.10;;;12.30;84.00;;;;;;5053010;28;20045;-65
2022/11/17 09:19:32;;;;;;;5.90;1.23;;;12.40;84.00;;;;;;5037388;28;20060;-64
2022/11/17 09:21:58;;;;;;;4.22;1.10;;;12.40;83.90;;;;;;5036159;28;20115;-66
2022/11/17 09:24:25;;;;;;;5.05;1.30;;;12.40;83.90;;;;;;5036834;28;20080;-65
2022/11/17 09:26:56;;;;;;;2.42;0.80;;;12.40;83.80;;;;;;5037587;28;20374;-65
2022/11/17 09:29:22;;;;;;;2.10;0.90;;;12.50;83.70;;;;;;5037726;28;20033;-66
2022/11/17 09:31:47;;;;;;;4.45;1.15;;;12.50;83.60;;;;;;5035553;28;20104;-66
2022/11/17 09:34:13;;;;;;;4.25;1.00;;;12.50;83.60;;;;;;5035616;28;20036;-65
2022/11/17 09:36:39;;;;;;;4.00;1.20;;;12.50;83.50;;;;;;5035366;28;20025;-65
2022/11/17 09:39:04;;;;;;;3.80;0.80;;;12.50;83.50;;;;;;5049581;28;20115;-65
2022/11/17 09:41:50;;;;;;;3.42;1.17;;;12.50;83.30;;;;;;5036195;28;20136;-65
2022/11/17 09:44:22;;;;;;;3.95;0.95;;;12.50;83.30;;;;;;5037368;28;20073;-65
2022/11/17 09:47:15;;;;;;;3.13;0.90;;;12.50;83.20;;;;;;5037189;28;20034;-65
2022/11/17 09:50:02;;;;;;;3.45;1.10;;;12.50;83.30;;;;;;5035967;28;20026;-66
2022/11/17 09:52:49;;;;;;;3.78;0.95;;;12.50;83.10;;;;;;5028663;28;20021;-66
2022/11/17 09:55:34;;;;;;;4.70;1.20;;;12.50;83.10;;;;;;5039610;28;20064;-65
2022/11/17 09:58:21;;;;;;;2.80;0.80;;;12.40;83.10;;;;;;5036677;28;20339;-65
2022/11/17 10:00:49;;;;;;;3.05;1.30;;;12.50;83.00;;;;;;5036620;28;20331;-65
2022/11/17 10:03:34;;;;;;;3.55;0.77;;;12.40;83.00;;;;;;5036713;28;20041;-66
2022/11/17 10:06:04;;;;;;;2.78;1.17;;;12.40;82.90;;;;;;5036441;28;20419;-65
2022/11/17 10:09:00;;;;;;;7.68;1.20;;;12.40;82.90;;;;;;5033434;28;20025;-65
2022/11/17 10:11:36;;;;;;;2.92;0.85;;;12.40;82.90;;;;;;5036791;28;20037;-65
2022/11/17 10:14:03;;;;;;;2.90;0.93;;;12.40;82.80;;;;;;5036608;28;20113;-66
2022/11/17 10:16:29;;;;;;;2.63;0.80;;;12.40;82.90;;;;;;5051620;28;20029;-65
2022/11/17 10:18:56;;;;;;;3.83;0.90;;;12.30;82.90;;;;;;5034852;28;20439;-65
2022/11/17 10:21:22;;;;;;;2.28;0.68;;;12.30;82.90;;;;;;5037126;28;20422;-65
2022/11/17 10:23:57;;;;;;;4.38;1.23;;;12.30;82.90;;;;;;5035679;28;20029;-65
2022/11/17 10:26:22;;;;;;;2.55;1.25;;;12.40;82.80;;;;;;5035643;28;20031;-65
2022/11/17 10:29:05;;;;;;;1.65;0.95;;;12.30;82.80;;;;;;5036268;28;20417;-65
2022/11/17 10:31:44;;;;;;;3.00;0.80;;;12.30;82.70;;;;;;5035850;28;20034;-65
2022/11/17 10:34:31;;;;;;;3.08;0.90;;;12.30;82.80;;;;;;5036025;28;20032;-66
2022/11/17 10:37:04;;;;;;;3.20;0.88;;;12.40;82.70;;;;;;5035395;28;20434;-65
2022/11/17 10:39:38;;;;;;;4.82;1.00;;;12.40;82.60;;;;;;5034938;28;20037;-65
2022/11/17 10:42:24;;;;;;;5.85;0.80;;;12.40;82.60;;;;;;5035087;28;20053;-65
2022/11/17 10:44:52;;;;;;;3.42;0.90;;;12.40;82.40;;;;;;5036109;28;20025;-65
2022/11/17 10:47:38;;;;;;;2.53;0.65;;;12.40;82.40;;;;;;5035095;28;20025;-65
2022/11/17 10:50:11;;;;;;;4.43;0.98;;;12.50;82.40;;;;;;5036351;28;20030;-65
2022/11/17 10:52:37;;;;;;;5.18;0.98;;;12.50;83.00;;;;;;5040956;28;20033;-66
2022/11/17 10:55:22;;;;;;;3.13;0.88;;;12.50;82.30;;;;;;5034562;28;20029;-65
2022/11/17 10:57:53;;;;;;;4.90;1.05;;;12.50;82.20;;;;;;5035647;28;20236;-65
2022/11/17 11:00:28;;;;;;;3.07;0.83;;;12.50;82.30;;;;;;5034398;28;20038;-65
2022/11/17 11:03:06;;;;;;;3.33;0.90;;;12.50;82.20;;;;;;5033769;28;20029;-66
2022/11/17 11:05:32;;;;;;;4.97;1.10;;;12.50;82.20;;;;;;5035441;28;20462;-66
2022/11/17 11:08:18;;;;;;;3.33;1.20;;;12.50;82.00;;;;;;5034509;28;20028;-65
2022/11/17 11:10:47;;;;;;;5.80;1.40;;;12.60;81.90;;;;;;5034129;28;20029;-64
2022/11/17 11:13:38;;;;;;;5.38;1.17;;;12.60;81.70;;;;;;5026838;28;20037;-65
2022/11/17 11:16:04;;;;;;;5.32;1.02;;;12.60;81.60;;;;;;5049004;28;20033;-65
2022/11/17 11:18:31;;;;;;;3.50;1.00;;;12.70;81.70;;;;;;5034709;28;20118;-65
2022/11/17 11:21:11;;;;;;;4.53;1.05;;;12.70;81.60;;;;;;5033417;28;20118;-65
2022/11/17 11:24:03;;;;;;;2.75;1.02;;;12.70;81.50;;;;;;5028105;28;20033;-66
2022/11/17 11:26:39;;;;;;;2.72;0.98;;;12.70;81.30;;;;;;5034922;28;20431;-68
2022/11/17 11:29:29;;;;;;;4.03;0.95;;;12.70;81.30;;;;;;5034184;28;20050;-66
2022/11/17 11:32:15;;;;;;;4.05;0.95;;;12.70;81.30;;;;;;5033229;28;20025;-67
2022/11/17 11:35:21;;;;;;;2.80;0.90;;;12.70;81.20;;;;;;5031128;28;20451;-67
2022/11/17 11:38:16;;;;;;;4.47;0.95;;;12.70;81.20;;;;;;5033182;28;20030;-68
2022/11/17 11:40:51;;;;;;;3.70;1.00;;;12.70;81.20;;;;;;5029216;28;20018;-68
2022/11/17 11:43:49;;;;;;;2.25;1.10;;;12.70;81.10;;;;;;5034541;28;20063;-68
2022/11/17 11:46:36;;;;;;;1.77;0.73;;;12.80;80.90;;;;;;5033686;28;20088;-68
2022/11/17 11:49:17;;;;;;;5.38;0.90;;;12.80;80.90;;;;;;5030660;28;20378;-67
2022/11/17 11:51:45;;;;;;;3.78;1.05;;;12.80;80.70;;;;;;5036262;28;20038;-68
2022/11/17 11:54:40;;;;;;;6.03;1.35;;;12.80;80.60;;;;;;5027748;28;20076;-67
2022/11/17 11:57:12;;;;;;;2.72;0.88;;;12.80;80.40;;;;;;5028970;28;20442;-68
2022/11/17 11:59:49;;;;;;;2.75;0.90;;;12.80;80.40;;;;;;5048830;28;20030;-68
2022/11/17 12:02:29;;;;;;;4.60;1.10;;;12.80;80.40;;;;;;5033100;28;20040;-68
2022/11/17 12:05:12;;;;;;;4.28;1.17;;;12.80;80.40;;;;;;5034583;28;20366;-67
2022/11/17 12:08:19;;;;;;;3.95;1.38;;;12.80;80.30;;;;;;5031011;28;20048;-68
2022/11/17 12:10:52;;;;;;;3.08;1.00;;;12.80;80.90;;;;;;5026821;28;20034;-67
2022/11/17 12:13:21;;;;;;;4.68;1.05;;;12.80;80.10;;;;;;5034189;28;20300;-68
2022/11/17 12:15:47;;;;;;;5.93;1.13;;;12.80;80.10;;;;;;5033103;28;20055;-68
2022/11/17 12:18:29;;;;;;;2.13;0.90;;;12.90;80.10;;;;;;5031684;28;20088;-68
2022/11/17 12:21:00;;;;;;;5.85;1.50;;;12.90;79.90;;;;;;5029124;28;20036;-68
2022/11/17 12:23:47;;;;;;;4.05;1.33;;;12.90;80.00;;;;;;5032552;28;20468;-68
2022/11/17 12:26:27;;;;;;;3.35;1.13;;;12.90;80.00;;;;;;5030941;28;20369;-68
2022/11/17 12:29:19;;;;;;;3.83;1.20;;;12.90;80.60;;;;;;5032497;28;20030;-67
2022/11/17 12:31:45;;;;;;;4.35;1.30;;;12.90;80.00;;;;;;5042759;28;20030;-68
2022/11/17 12:34:30;;;;;;;4.68;1.30;;;12.90;79.90;;;;;;5036711;28;20044;-68
2022/11/17 12:37:19;;;;;;;3.80;0.82;;;12.90;79.90;;;;;;5030684;28;20040;-68
2022/11/17 12:39:58;;;;;;;3.20;1.05;;;12.90;80.40;;;;;;5029755;28;20104;-69
2022/11/17 12:42:24;;;;;;;5.57;1.35;;;13.00;79.90;;;;;;5031664;28;20033;-68
2022/11/17 12:44:59;;;;;;;4.90;1.20;;;13.00;79.80;;;;;;5033319;28;20022;-69
2022/11/17 12:47:30;;;;;;;2.08;0.90;;;13.00;79.70;;;;;;5033954;28;20088;-69
2022/11/17 12:49:56;;;;;;;;;;;13.00;79.60;;;;;;5045650;28;20026;-69
2022/11/17 12:52:33;;;;;;;3.47;0.80;;;13.00;79.60;;;;;;5035509;28;19920;-68
2022/11/17 12:55:23;;;;;;;3.53;1.02;;;13.00;79.50;;;;;;5038515;28;20025;-69
2022/11/17 12:58:07;;;;;;;3.75;1.25;;;12.90;79.50;;;;;;5038301;28;20021;-69
2022/11/17 13:00:57;;;;;;;2.65;0.80;;;12.90;79.50;;;;;;5053521;28;20037;-67
2022/11/17 13:04:06;;;;;;;3.47;1.15;;;12.90;79.50;;;;;;5036654;28;20048;-67
2022/11/17 13:06:32;;;;;;;2.25;1.10;;;12.90;79.40;;;;;;5033181;28;20121;-69
2022/11/17 13:09:00;;;;;;;3.72;1.00;;;12.90;79.40;;;;;;5040232;28;20100;-69
2022/11/17 13:11:27;;;;;;;1.40;0.90;;;12.90;79.30;;;;;;5040505;28;20021;-68
2022/11/17 13:14:12;;;;;;;7.63;1.20;;;13.00;79.30;;;;;;5032975;28;20090;-69
2022/11/17 13:16:52;;;;;;;2.90;1.10;;;12.90;79.20;;;;;;5033995;28;20282;-68
2022/11/17 13:19:38;;;;;;;2.80;1.20;;;13.00;79.30;;;;;;5033864;28;20295;-69
2022/11/17 13:22:17;;;;;;;3.40;1.10;;;13.00;79.20;;;;;;5034851;28;20044;-68
2022/11/17 13:24:45;;;;;;;2.25;0.93;;;12.90;79.20;;;;;;5033607;28;20086;-68
2022/11/17 13:27:21;;;;;;;4.40;1.10;;;12.90;79.20;;;;;;5031696;28;20026;-68
2022/11/17 13:29:48;;;;;;;2.95;1.15;;;12.90;79.20;;;;;;5028889;28;20032;-68
2022/11/17 13:32:18;;;;;;;4.85;1.85;;;12.90;79.20;;;;;;5035416;28;20446;-68
2022/11/17 13:34:55;;;;;;;1.83;0.90;;;12.90;79.20;;;;;;5050310;28;20026;-68
2022/11/17 13:37:27;;;;;;;8.48;1.20;;;12.90;79.10;;;;;;5039891;28;20044;-68
2022/11/17 13:40:01;;;;;;;5.15;1.00;;;12.90;79.90;;;;;;5047598;28;20025;-68